sensor_id;sensor_type;location;lat;lon;timestamp;temperature;humidity
9466;DHT22;4771;48.726;9.006;2024-03-25T00:01:51;6.00;99.90
9466;DHT22;4771;48.726;9.006;2024-03-25T00:04:18;6.00;99.90
9466;DHT22;4771;48.726;9.006;2024-03-25T00:06:47;5.90;99.90
9466;DHT22;4771;48.726;9.006;2024-03-25T00:09:13;5.90;99.90
9466;DHT22;4771;48.726;9.006;2024-03-25T00:11:40;5.90;99.90
9466;DHT22;4771;48.726;9.006;2024-03-25T00:14:06;5.90;99.90
9466;DHT22;4771;48.726;9.006;2024-03-25T00:16:33;5.80;99.90
9466;DHT22;4771;48.726;9.006;2024-03-25T00:18:59;5.90;99.90
9466;DHT22;4771;48.726;9.006;2024-03-25T00:21:27;5.80;99.90
9466;DHT22;4771;48.726;9.006;2024-03-25T00:23:53;5.80;99.90
9466;DHT22;4771;48.726;9.006;2024-03-25T00:26:22;5.70;99.90
9466;DHT22;4771;48.726;9.006;2024-03-25T00:28:48;5.70;99.90
9466;DHT22;4771;48.726;9.006;2024-03-25T00:31:15;5.80;99.90
9466;DHT22;4771;48.726;9.006;2024-03-25T00:33:40;5.70;99.90
9466;DHT22;4771;48.726;9.006;2024-03-25T00:36:07;5.60;99.90
9466;DHT22;4771;48.726;9.006;2024-03-25T00:38:35;5.50;99.90
9466;DHT22;4771;48.726;9.006;2024-03-25T00:41:02;5.60;99.90
9466;DHT22;4771;48.726;9.006;2024-03-25T00:43:27;5.60;99.90
9466;DHT22;4771;48.726;9.006;2024-03-25T00:45:54;5.60;99.90
9466;DHT22;4771;48.726;9.006;2024-03-25T00:48:20;5.60;99.90
9466;DHT22;4771;48.726;9.006;2024-03-25T00:50:47;5.60;99.90
9466;DHT22;4771;48.726;9.006;2024-03-25T00:53:13;5.60;99.90
9466;DHT22;4771;48.726;9.006;2024-03-25T00:55:41;5.60;99.90
9466;DHT22;4771;48.726;9.006;2024-03-25T00:58:07;5.60;99.90
9466;DHT22;4771;48.726;9.006;2024-03-25T01:00:34;5.50;99.90
9466;DHT22;4771;48.726;9.006;2024-03-25T01:03:00;5.50;99.90
9466;DHT22;4771;48.726;9.006;2024-03-25T01:05:27;5.50;99.90
9466;DHT22;4771;48.726;9.006;2024-03-25T01:07:53;5.60;99.90
9466;DHT22;4771;48.726;9.006;2024-03-25T01:10:20;5.60;99.90
9466;DHT22;4771;48.726;9.006;2024-03-25T01:12:48;5.50;99.90
9466;DHT22;4771;48.726;9.006;2024-03-25T01:15:15;5.60;99.90
9466;DHT22;4771;48.726;9.006;2024-03-25T01:17:40;5.60;99.90
9466;DHT22;4771;48.726;9.006;2024-03-25T01:20:09;5.60;99.90
9466;DHT22;4771;48.726;9.006;2024-03-25T01:22:35;5.20;99.90
9466;DHT22;4771;48.726;9.006;2024-03-25T01:25:02;5.60;99.90
9466;DHT22;4771;48.726;9.006;2024-03-25T01:27:27;5.60;99.90
9466;DHT22;4771;48.726;9.006;2024-03-25T01:29:56;5.60;99.90
9466;DHT22;4771;48.726;9.006;2024-03-25T01:32:22;5.60;99.90
9466;DHT22;4771;48.726;9.006;2024-03-25T01:34:49;5.70;99.90
9466;DHT22;4771;48.726;9.006;2024-03-25T01:37:15;5.70;99.90
9466;DHT22;4771;48.726;9.006;2024-03-25T01:39:42;5.70;99.90
9466;DHT22;4771;48.726;9.006;2024-03-25T01:42:07;5.70;99.90
9466;DHT22;4771;48.726;9.006;2024-03-25T01:44:34;5.80;99.90
9466;DHT22;4771;48.726;9.006;2024-03-25T01:47:01;5.80;99.90
9466;DHT22;4771;48.726;9.006;2024-03-25T01:49:28;5.80;99.90
9466;DHT22;4771;48.726;9.006;2024-03-25T01:51:55;5.80;99.90
9466;DHT22;4771;48.726;9.006;2024-03-25T01:54:24;5.80;99.90
9466;DHT22;4771;48.726;9.006;2024-03-25T01:56:50;5.80;99.90
9466;DHT22;4771;48.726;9.006;2024-03-25T01:59:19;5.80;99.90
9466;DHT22;4771;48.726;9.006;2024-03-25T02:01:46;5.90;99.90
9466;DHT22;4771;48.726;9.006;2024-03-25T02:04:15;5.90;99.90
9466;DHT22;4771;48.726;9.006;2024-03-25T02:06:41;5.90;99.90
9466;DHT22;4771;48.726;9.006;2024-03-25T02:09:10;5.90;99.90
9466;DHT22;4771;48.726;9.006;2024-03-25T02:11:38;6.00;99.90
9466;DHT22;4771;48.726;9.006;2024-03-25T02:14:06;5.90;99.90
9466;DHT22;4771;48.726;9.006;2024-03-25T02:16:32;5.90;99.90
9466;DHT22;4771;48.726;9.006;2024-03-25T02:18:59;5.90;99.90
9466;DHT22;4771;48.726;9.006;2024-03-25T02:21:27;5.90;99.90
9466;DHT22;4771;48.726;9.006;2024-03-25T02:23:56;6.00;99.90
9466;DHT22;4771;48.726;9.006;2024-03-25T02:26:26;5.90;99.90
9466;DHT22;4771;48.726;9.006;2024-03-25T02:28:53;5.90;99.90
9466;DHT22;4771;48.726;9.006;2024-03-25T02:31:19;5.90;99.90
9466;DHT22;4771;48.726;9.006;2024-03-25T02:33:46;5.80;99.90
9466;DHT22;4771;48.726;9.006;2024-03-25T02:36:11;5.80;99.90
9466;DHT22;4771;48.726;9.006;2024-03-25T02:38:38;5.80;99.90
9466;DHT22;4771;48.726;9.006;2024-03-25T02:41:04;5.70;99.90
9466;DHT22;4771;48.726;9.006;2024-03-25T02:43:33;5.60;99.90
9466;DHT22;4771;48.726;9.006;2024-03-25T02:45:59;5.60;99.90
9466;DHT22;4771;48.726;9.006;2024-03-25T02:48:26;5.60;99.90
9466;DHT22;4771;48.726;9.006;2024-03-25T02:50:52;5.60;99.90
9466;DHT22;4771;48.726;9.006;2024-03-25T02:53:19;5.60;99.90
9466;DHT22;4771;48.726;9.006;2024-03-25T02:55:45;5.50;99.90
9466;DHT22;4771;48.726;9.006;2024-03-25T02:58:11;5.60;99.90
9466;DHT22;4771;48.726;9.006;2024-03-25T03:00:39;5.60;99.90
9466;DHT22;4771;48.726;9.006;2024-03-25T03:03:05;5.60;99.90
9466;DHT22;4771;48.726;9.006;2024-03-25T03:05:31;5.60;99.90
9466;DHT22;4771;48.726;9.006;2024-03-25T03:07:58;5.60;99.90
9466;DHT22;4771;48.726;9.006;2024-03-25T03:10:24;5.60;99.90
9466;DHT22;4771;48.726;9.006;2024-03-25T03:12:51;5.70;99.90
9466;DHT22;4771;48.726;9.006;2024-03-25T03:15:17;5.80;99.90
9466;DHT22;4771;48.726;9.006;2024-03-25T03:17:45;5.80;99.90
9466;DHT22;4771;48.726;9.006;2024-03-25T03:20:11;5.80;99.90
9466;DHT22;4771;48.726;9.006;2024-03-25T03:22:38;5.90;99.90
9466;DHT22;4771;48.726;9.006;2024-03-25T03:25:05;5.90;99.90
9466;DHT22;4771;48.726;9.006;2024-03-25T03:27:31;5.90;99.90
9466;DHT22;4771;48.726;9.006;2024-03-25T03:29:57;5.90;99.90
9466;DHT22;4771;48.726;9.006;2024-03-25T03:32:24;5.90;99.90
9466;DHT22;4771;48.726;9.006;2024-03-25T03:34:52;5.90;99.90
9466;DHT22;4771;48.726;9.006;2024-03-25T03:37:18;5.90;99.90
9466;DHT22;4771;48.726;9.006;2024-03-25T03:39:44;5.90;99.90
9466;DHT22;4771;48.726;9.006;2024-03-25T03:42:11;5.90;99.90
9466;DHT22;4771;48.726;9.006;2024-03-25T03:44:37;5.90;99.90
9466;DHT22;4771;48.726;9.006;2024-03-25T03:47:04;5.90;99.90
9466;DHT22;4771;48.726;9.006;2024-03-25T03:49:30;5.90;99.90
9466;DHT22;4771;48.726;9.006;2024-03-25T03:51:58;5.90;99.90
9466;DHT22;4771;48.726;9.006;2024-03-25T03:54:24;5.90;99.90
9466;DHT22;4771;48.726;9.006;2024-03-25T03:56:51;5.80;99.90
9466;DHT22;4771;48.726;9.006;2024-03-25T03:59:17;5.90;99.90
9466;DHT22;4771;48.726;9.006;2024-03-25T04:01:44;5.80;99.90
9466;DHT22;4771;48.726;9.006;2024-03-25T04:04:10;5.90;99.90
9466;DHT22;4771;48.726;9.006;2024-03-25T04:06:36;6.00;99.90
9466;DHT22;4771;48.726;9.006;2024-03-25T04:09:07;6.00;99.90
9466;DHT22;4771;48.726;9.006;2024-03-25T04:11:35;6.00;99.90
9466;DHT22;4771;48.726;9.006;2024-03-25T04:14:01;6.10;99.90
9466;DHT22;4771;48.726;9.006;2024-03-25T04:16:28;6.10;99.90
9466;DHT22;4771;48.726;9.006;2024-03-25T04:18:56;6.00;99.90
9466;DHT22;4771;48.726;9.006;2024-03-25T04:21:23;6.10;99.90
9466;DHT22;4771;48.726;9.006;2024-03-25T04:23:49;6.00;99.90
9466;DHT22;4771;48.726;9.006;2024-03-25T04:26:17;6.00;99.90
9466;DHT22;4771;48.726;9.006;2024-03-25T04:28:44;6.00;99.90
9466;DHT22;4771;48.726;9.006;2024-03-25T04:31:10;6.00;99.90
9466;DHT22;4771;48.726;9.006;2024-03-25T04:33:36;5.90;99.90
9466;DHT22;4771;48.726;9.006;2024-03-25T04:36:03;5.90;99.90
9466;DHT22;4771;48.726;9.006;2024-03-25T04:38:29;5.90;99.90
9466;DHT22;4771;48.726;9.006;2024-03-25T04:40:55;6.00;99.90
9466;DHT22;4771;48.726;9.006;2024-03-25T04:43:22;6.00;99.90
9466;DHT22;4771;48.726;9.006;2024-03-25T04:45:48;6.00;99.90
9466;DHT22;4771;48.726;9.006;2024-03-25T04:48:14;6.00;99.90
9466;DHT22;4771;48.726;9.006;2024-03-25T04:50:40;5.90;99.90
9466;DHT22;4771;48.726;9.006;2024-03-25T04:53:06;6.00;99.90
9466;DHT22;4771;48.726;9.006;2024-03-25T04:55:32;5.90;99.90
9466;DHT22;4771;48.726;9.006;2024-03-25T04:57:58;6.00;99.90
9466;DHT22;4771;48.726;9.006;2024-03-25T05:00:26;6.00;99.90
9466;DHT22;4771;48.726;9.006;2024-03-25T05:02:52;5.90;99.90
9466;DHT22;4771;48.726;9.006;2024-03-25T05:05:17;6.00;99.90
9466;DHT22;4771;48.726;9.006;2024-03-25T05:07:43;6.00;99.90
9466;DHT22;4771;48.726;9.006;2024-03-25T05:10:09;6.00;99.90
9466;DHT22;4771;48.726;9.006;2024-03-25T05:12:36;6.00;99.90
9466;DHT22;4771;48.726;9.006;2024-03-25T05:15:02;6.00;99.90
9466;DHT22;4771;48.726;9.006;2024-03-25T05:17:29;5.90;99.90
9466;DHT22;4771;48.726;9.006;2024-03-25T05:19:55;5.90;99.90
9466;DHT22;4771;48.726;9.006;2024-03-25T05:22:21;5.90;99.90
9466;DHT22;4771;48.726;9.006;2024-03-25T05:24:47;5.90;99.90
9466;DHT22;4771;48.726;9.006;2024-03-25T05:27:13;5.90;99.90
9466;DHT22;4771;48.726;9.006;2024-03-25T05:29:39;5.90;99.90
9466;DHT22;4771;48.726;9.006;2024-03-25T05:32:05;5.90;99.90
9466;DHT22;4771;48.726;9.006;2024-03-25T05:34:33;5.90;99.90
9466;DHT22;4771;48.726;9.006;2024-03-25T05:36:59;5.90;99.90
9466;DHT22;4771;48.726;9.006;2024-03-25T05:39:25;5.90;99.90
9466;DHT22;4771;48.726;9.006;2024-03-25T05:41:50;5.90;99.90
9466;DHT22;4771;48.726;9.006;2024-03-25T05:44:16;6.00;99.90
9466;DHT22;4771;48.726;9.006;2024-03-25T05:46:43;5.90;99.90
9466;DHT22;4771;48.726;9.006;2024-03-25T05:49:09;5.90;99.90
9466;DHT22;4771;48.726;9.006;2024-03-25T05:51:36;5.90;99.90
9466;DHT22;4771;48.726;9.006;2024-03-25T05:54:02;5.90;99.90
9466;DHT22;4771;48.726;9.006;2024-03-25T05:56:28;5.90;99.90
9466;DHT22;4771;48.726;9.006;2024-03-25T05:58:55;6.00;99.90
9466;DHT22;4771;48.726;9.006;2024-03-25T06:01:21;6.00;99.90
9466;DHT22;4771;48.726;9.006;2024-03-25T06:03:47;6.00;99.90
9466;DHT22;4771;48.726;9.006;2024-03-25T06:06:13;6.00;99.90
9466;DHT22;4771;48.726;9.006;2024-03-25T06:08:41;6.00;99.90
9466;DHT22;4771;48.726;9.006;2024-03-25T06:11:06;6.00;99.90
9466;DHT22;4771;48.726;9.006;2024-03-25T06:13:32;6.00;99.90
9466;DHT22;4771;48.726;9.006;2024-03-25T06:15:58;6.10;99.90
9466;DHT22;4771;48.726;9.006;2024-03-25T06:18:25;6.00;99.90
9466;DHT22;4771;48.726;9.006;2024-03-25T06:20:51;6.10;99.90
9466;DHT22;4771;48.726;9.006;2024-03-25T06:23:24;6.00;99.90
9466;DHT22;4771;48.726;9.006;2024-03-25T06:25:53;6.00;99.90
9466;DHT22;4771;48.726;9.006;2024-03-25T06:28:19;6.00;99.90
9466;DHT22;4771;48.726;9.006;2024-03-25T06:30:45;6.00;99.90
9466;DHT22;4771;48.726;9.006;2024-03-25T06:33:30;6.00;99.90
9466;DHT22;4771;48.726;9.006;2024-03-25T06:36:14;5.90;99.90
9466;DHT22;4771;48.726;9.006;2024-03-25T06:38:40;6.00;99.90
9466;DHT22;4771;48.726;9.006;2024-03-25T06:41:07;6.00;99.90
9466;DHT22;4771;48.726;9.006;2024-03-25T06:43:33;6.00;99.90
9466;DHT22;4771;48.726;9.006;2024-03-25T06:45:59;6.00;99.90
9466;DHT22;4771;48.726;9.006;2024-03-25T06:48:25;6.00;99.90
9466;DHT22;4771;48.726;9.006;2024-03-25T06:50:55;6.00;99.90
9466;DHT22;4771;48.726;9.006;2024-03-25T06:53:22;6.00;99.90
9466;DHT22;4771;48.726;9.006;2024-03-25T06:55:52;6.00;99.90
9466;DHT22;4771;48.726;9.006;2024-03-25T06:58:21;6.10;99.90
9466;DHT22;4771;48.726;9.006;2024-03-25T07:00:47;6.10;99.90
9466;DHT22;4771;48.726;9.006;2024-03-25T07:03:14;6.20;99.90
9466;DHT22;4771;48.726;9.006;2024-03-25T07:05:40;6.20;99.90
9466;DHT22;4771;48.726;9.006;2024-03-25T07:08:06;6.20;99.90
9466;DHT22;4771;48.726;9.006;2024-03-25T07:10:32;6.30;99.90
9466;DHT22;4771;48.726;9.006;2024-03-25T07:12:58;6.30;99.90
9466;DHT22;4771;48.726;9.006;2024-03-25T07:15:25;6.30;99.90
9466;DHT22;4771;48.726;9.006;2024-03-25T07:17:51;6.40;99.90
9466;DHT22;4771;48.726;9.006;2024-03-25T07:20:17;6.40;99.90
9466;DHT22;4771;48.726;9.006;2024-03-25T07:22:43;6.40;99.90
9466;DHT22;4771;48.726;9.006;2024-03-25T07:25:09;6.40;99.90
9466;DHT22;4771;48.726;9.006;2024-03-25T07:27:35;6.40;99.90
9466;DHT22;4771;48.726;9.006;2024-03-25T07:30:01;6.40;99.90
9466;DHT22;4771;48.726;9.006;2024-03-25T07:32:29;6.70;99.90
9466;DHT22;4771;48.726;9.006;2024-03-25T07:34:54;6.50;99.90
9466;DHT22;4771;48.726;9.006;2024-03-25T07:37:20;6.50;99.90
9466;DHT22;4771;48.726;9.006;2024-03-25T07:39:46;6.60;99.90
9466;DHT22;4771;48.726;9.006;2024-03-25T07:42:13;6.50;99.90
9466;DHT22;4771;48.726;9.006;2024-03-25T07:44:39;6.60;99.90
9466;DHT22;4771;48.726;9.006;2024-03-25T07:47:05;6.60;99.90
9466;DHT22;4771;48.726;9.006;2024-03-25T07:49:33;6.60;99.90
9466;DHT22;4771;48.726;9.006;2024-03-25T07:51:59;6.60;99.90
9466;DHT22;4771;48.726;9.006;2024-03-25T07:54:25;6.60;99.90
9466;DHT22;4771;48.726;9.006;2024-03-25T07:56:51;6.60;99.90
9466;DHT22;4771;48.726;9.006;2024-03-25T07:59:17;6.60;99.90
9466;DHT22;4771;48.726;9.006;2024-03-25T08:01:43;6.60;99.90
9466;DHT22;4771;48.726;9.006;2024-03-25T08:04:09;6.60;99.90
9466;DHT22;4771;48.726;9.006;2024-03-25T08:06:37;6.60;99.90
9466;DHT22;4771;48.726;9.006;2024-03-25T08:09:03;6.70;99.90
9466;DHT22;4771;48.726;9.006;2024-03-25T08:11:29;6.80;99.90
9466;DHT22;4771;48.726;9.006;2024-03-25T08:13:55;6.80;99.90
9466;DHT22;4771;48.726;9.006;2024-03-25T08:16:21;6.90;99.90
9466;DHT22;4771;48.726;9.006;2024-03-25T08:18:47;6.90;99.90
9466;DHT22;4771;48.726;9.006;2024-03-25T08:21:13;7.20;99.90
9466;DHT22;4771;48.726;9.006;2024-03-25T08:23:40;7.10;99.90
9466;DHT22;4771;48.726;9.006;2024-03-25T08:26:06;7.20;99.90
9466;DHT22;4771;48.726;9.006;2024-03-25T08:28:32;7.20;99.90
9466;DHT22;4771;48.726;9.006;2024-03-25T08:30:58;7.30;99.90
9466;DHT22;4771;48.726;9.006;2024-03-25T08:33:24;7.40;99.90
9466;DHT22;4771;48.726;9.006;2024-03-25T08:35:50;7.50;99.90
9466;DHT22;4771;48.726;9.006;2024-03-25T08:38:16;7.60;99.90
9466;DHT22;4771;48.726;9.006;2024-03-25T08:40:43;7.60;99.90
9466;DHT22;4771;48.726;9.006;2024-03-25T08:43:09;7.60;99.90
9466;DHT22;4771;48.726;9.006;2024-03-25T08:45:35;7.70;99.90
9466;DHT22;4771;48.726;9.006;2024-03-25T08:48:01;7.80;99.90
9466;DHT22;4771;48.726;9.006;2024-03-25T08:50:27;7.70;99.90
9466;DHT22;4771;48.726;9.006;2024-03-25T08:52:53;7.70;99.90
9466;DHT22;4771;48.726;9.006;2024-03-25T08:55:19;7.70;99.90
9466;DHT22;4771;48.726;9.006;2024-03-25T08:57:46;7.80;99.90
9466;DHT22;4771;48.726;9.006;2024-03-25T09:00:13;7.80;99.90
9466;DHT22;4771;48.726;9.006;2024-03-25T09:02:39;7.80;99.90
9466;DHT22;4771;48.726;9.006;2024-03-25T09:05:06;7.80;99.90
9466;DHT22;4771;48.726;9.006;2024-03-25T09:07:32;7.80;99.90
9466;DHT22;4771;48.726;9.006;2024-03-25T09:09:58;7.90;99.90
9466;DHT22;4771;48.726;9.006;2024-03-25T09:12:43;7.90;99.90
9466;DHT22;4771;48.726;9.006;2024-03-25T09:15:10;8.00;99.90
9466;DHT22;4771;48.726;9.006;2024-03-25T09:17:36;8.00;99.90
9466;DHT22;4771;48.726;9.006;2024-03-25T09:20:02;8.20;99.90
9466;DHT22;4771;48.726;9.006;2024-03-25T09:22:29;8.30;99.90
9466;DHT22;4771;48.726;9.006;2024-03-25T09:24:55;8.40;99.90
9466;DHT22;4771;48.726;9.006;2024-03-25T09:27:21;8.60;99.90
9466;DHT22;4771;48.726;9.006;2024-03-25T09:29:47;8.60;99.90
9466;DHT22;4771;48.726;9.006;2024-03-25T09:32:14;8.70;99.90
9466;DHT22;4771;48.726;9.006;2024-03-25T09:34:40;8.80;99.90
9466;DHT22;4771;48.726;9.006;2024-03-25T09:37:06;8.90;99.90
9466;DHT22;4771;48.726;9.006;2024-03-25T09:39:32;9.00;99.90
9466;DHT22;4771;48.726;9.006;2024-03-25T09:41:58;9.10;99.90
9466;DHT22;4771;48.726;9.006;2024-03-25T09:44:29;9.10;99.90
9466;DHT22;4771;48.726;9.006;2024-03-25T09:46:57;9.20;99.70
9466;DHT22;4771;48.726;9.006;2024-03-25T09:49:25;9.10;99.40
9466;DHT22;4771;48.726;9.006;2024-03-25T09:51:52;9.10;98.90
9466;DHT22;4771;48.726;9.006;2024-03-25T09:54:18;9.10;98.70
9466;DHT22;4771;48.726;9.006;2024-03-25T09:56:45;9.10;98.10
9466;DHT22;4771;48.726;9.006;2024-03-25T09:59:12;9.20;98.50
9466;DHT22;4771;48.726;9.006;2024-03-25T10:01:38;9.30;99.40
9466;DHT22;4771;48.726;9.006;2024-03-25T10:04:04;9.40;98.50
9466;DHT22;4771;48.726;9.006;2024-03-25T10:06:31;9.50;98.40
9466;DHT22;4771;48.726;9.006;2024-03-25T10:08:57;9.60;98.40
9466;DHT22;4771;48.726;9.006;2024-03-25T10:11:25;9.80;98.30
9466;DHT22;4771;48.726;9.006;2024-03-25T10:13:51;10.00;96.50
9466;DHT22;4771;48.726;9.006;2024-03-25T10:16:17;10.20;95.70
9466;DHT22;4771;48.726;9.006;2024-03-25T10:18:43;10.20;94.40
9466;DHT22;4771;48.726;9.006;2024-03-25T10:21:10;10.30;94.40
9466;DHT22;4771;48.726;9.006;2024-03-25T10:23:40;10.40;94.90
9466;DHT22;4771;48.726;9.006;2024-03-25T10:26:06;10.40;92.40
9466;DHT22;4771;48.726;9.006;2024-03-25T10:28:32;10.60;93.30
9466;DHT22;4771;48.726;9.006;2024-03-25T10:31:03;10.70;93.70
9466;DHT22;4771;48.726;9.006;2024-03-25T10:33:29;10.80;92.10
9466;DHT22;4771;48.726;9.006;2024-03-25T10:35:57;11.00;91.20
9466;DHT22;4771;48.726;9.006;2024-03-25T10:38:25;11.10;86.70
9466;DHT22;4771;48.726;9.006;2024-03-25T10:40:55;11.10;88.30
9466;DHT22;4771;48.726;9.006;2024-03-25T10:43:22;11.20;87.90
9466;DHT22;4771;48.726;9.006;2024-03-25T10:45:53;11.30;80.70
9466;DHT22;4771;48.726;9.006;2024-03-25T10:48:28;11.30;79.00
9466;DHT22;4771;48.726;9.006;2024-03-25T10:50:55;11.50;79.30
9466;DHT22;4771;48.726;9.006;2024-03-25T10:53:22;11.60;75.60
9466;DHT22;4771;48.726;9.006;2024-03-25T10:55:53;11.80;77.90
9466;DHT22;4771;48.726;9.006;2024-03-25T10:58:21;11.80;71.00
9466;DHT22;4771;48.726;9.006;2024-03-25T11:00:48;11.90;69.00
9466;DHT22;4771;48.726;9.006;2024-03-25T11:03:14;11.90;63.40
9466;DHT22;4771;48.726;9.006;2024-03-25T11:05:41;11.80;65.40
9466;DHT22;4771;48.726;9.006;2024-03-25T11:08:11;11.90;55.00
9466;DHT22;4771;48.726;9.006;2024-03-25T11:10:40;12.00;55.30
9466;DHT22;4771;48.726;9.006;2024-03-25T11:13:11;12.00;54.70
9466;DHT22;4771;48.726;9.006;2024-03-25T11:15:37;11.90;52.50
9466;DHT22;4771;48.726;9.006;2024-03-25T11:18:04;11.90;51.70
9466;DHT22;4771;48.726;9.006;2024-03-25T11:20:30;11.70;52.30
9466;DHT22;4771;48.726;9.006;2024-03-25T11:22:56;11.70;50.40
9466;DHT22;4771;48.726;9.006;2024-03-25T11:25:22;11.60;48.40
9466;DHT22;4771;48.726;9.006;2024-03-25T11:27:48;11.60;52.00
9466;DHT22;4771;48.726;9.006;2024-03-25T11:30:16;11.60;48.30
9466;DHT22;4771;48.726;9.006;2024-03-25T11:32:46;11.60;51.40
9466;DHT22;4771;48.726;9.006;2024-03-25T11:35:12;11.50;50.00
9466;DHT22;4771;48.726;9.006;2024-03-25T11:37:40;11.50;48.50
9466;DHT22;4771;48.726;9.006;2024-03-25T11:40:07;11.50;49.10
9466;DHT22;4771;48.726;9.006;2024-03-25T11:42:33;11.30;48.50
9466;DHT22;4771;48.726;9.006;2024-03-25T11:45:00;11.30;47.00
9466;DHT22;4771;48.726;9.006;2024-03-25T11:47:27;11.30;48.90
9466;DHT22;4771;48.726;9.006;2024-03-25T11:49:53;11.30;48.20
9466;DHT22;4771;48.726;9.006;2024-03-25T11:52:19;11.30;48.30
9466;DHT22;4771;48.726;9.006;2024-03-25T11:54:53;11.30;50.80
9466;DHT22;4771;48.726;9.006;2024-03-25T11:57:20;11.40;48.40
9466;DHT22;4771;48.726;9.006;2024-03-25T11:59:46;11.40;48.20
9466;DHT22;4771;48.726;9.006;2024-03-25T12:02:12;11.40;47.20
9466;DHT22;4771;48.726;9.006;2024-03-25T12:04:42;11.40;49.50
9466;DHT22;4771;48.726;9.006;2024-03-25T12:07:10;11.50;47.20
9466;DHT22;4771;48.726;9.006;2024-03-25T12:09:35;11.50;47.30
9466;DHT22;4771;48.726;9.006;2024-03-25T12:12:20;11.70;49.00
9466;DHT22;4771;48.726;9.006;2024-03-25T12:14:46;11.90;46.40
9466;DHT22;4771;48.726;9.006;2024-03-25T12:17:12;12.00;46.00
9466;DHT22;4771;48.726;9.006;2024-03-25T12:19:40;12.00;46.50
9466;DHT22;4771;48.726;9.006;2024-03-25T12:22:06;12.00;45.30
9466;DHT22;4771;48.726;9.006;2024-03-25T12:24:33;12.00;46.80
9466;DHT22;4771;48.726;9.006;2024-03-25T12:26:59;12.00;48.30
9466;DHT22;4771;48.726;9.006;2024-03-25T12:29:25;12.20;45.60
9466;DHT22;4771;48.726;9.006;2024-03-25T12:31:54;12.30;47.40
9466;DHT22;4771;48.726;9.006;2024-03-25T12:34:20;12.50;45.60
9466;DHT22;4771;48.726;9.006;2024-03-25T12:36:48;12.60;45.70
9466;DHT22;4771;48.726;9.006;2024-03-25T12:39:17;12.80;44.40
9466;DHT22;4771;48.726;9.006;2024-03-25T12:41:43;12.80;42.40
9466;DHT22;4771;48.726;9.006;2024-03-25T12:44:11;13.00;43.10
9466;DHT22;4771;48.726;9.006;2024-03-25T12:46:37;13.10;44.00
9466;DHT22;4771;48.726;9.006;2024-03-25T12:49:03;13.10;41.50
9466;DHT22;4771;48.726;9.006;2024-03-25T12:51:29;13.20;42.30
9466;DHT22;4771;48.726;9.006;2024-03-25T12:53:57;13.20;39.60
9466;DHT22;4771;48.726;9.006;2024-03-25T12:56:24;13.00;38.30
9466;DHT22;4771;48.726;9.006;2024-03-25T12:58:50;13.10;39.80
9466;DHT22;4771;48.726;9.006;2024-03-25T13:01:16;13.00;39.70
9466;DHT22;4771;48.726;9.006;2024-03-25T13:03:42;13.00;39.90
9466;DHT22;4771;48.726;9.006;2024-03-25T13:06:08;13.00;38.70
9466;DHT22;4771;48.726;9.006;2024-03-25T13:08:34;13.00;38.90
9466;DHT22;4771;48.726;9.006;2024-03-25T13:11:01;13.00;38.70
9466;DHT22;4771;48.726;9.006;2024-03-25T13:13:27;13.00;37.80
9466;DHT22;4771;48.726;9.006;2024-03-25T13:15:53;13.10;38.40
9466;DHT22;4771;48.726;9.006;2024-03-25T13:18:19;13.00;36.90
9466;DHT22;4771;48.726;9.006;2024-03-25T13:20:45;13.10;39.00
9466;DHT22;4771;48.726;9.006;2024-03-25T13:23:11;13.10;37.90
9466;DHT22;4771;48.726;9.006;2024-03-25T13:25:37;13.10;35.30
9466;DHT22;4771;48.726;9.006;2024-03-25T13:28:04;13.10;34.00
9466;DHT22;4771;48.726;9.006;2024-03-25T13:30:31;13.00;32.50
9466;DHT22;4771;48.726;9.006;2024-03-25T13:32:58;13.00;32.90
9466;DHT22;4771;48.726;9.006;2024-03-25T13:35:23;13.00;33.10
9466;DHT22;4771;48.726;9.006;2024-03-25T13:37:49;13.00;34.70
9466;DHT22;4771;48.726;9.006;2024-03-25T13:40:15;13.00;33.00
9466;DHT22;4771;48.726;9.006;2024-03-25T13:42:41;13.10;33.60
9466;DHT22;4771;48.726;9.006;2024-03-25T13:45:09;12.90;32.80
9466;DHT22;4771;48.726;9.006;2024-03-25T13:47:35;13.00;31.50
9466;DHT22;4771;48.726;9.006;2024-03-25T13:50:02;13.00;28.40
9466;DHT22;4771;48.726;9.006;2024-03-25T13:52:28;12.90;27.50
9466;DHT22;4771;48.726;9.006;2024-03-25T13:54:54;12.90;27.80
9466;DHT22;4771;48.726;9.006;2024-03-25T13:57:20;13.00;26.80
9466;DHT22;4771;48.726;9.006;2024-03-25T13:59:46;13.10;27.60
9466;DHT22;4771;48.726;9.006;2024-03-25T14:02:13;13.10;28.30
9466;DHT22;4771;48.726;9.006;2024-03-25T14:04:39;13.10;27.90
9466;DHT22;4771;48.726;9.006;2024-03-25T14:07:05;13.10;27.40
9466;DHT22;4771;48.726;9.006;2024-03-25T14:09:31;13.10;28.40
9466;DHT22;4771;48.726;9.006;2024-03-25T14:11:57;13.10;28.60
9466;DHT22;4771;48.726;9.006;2024-03-25T14:14:23;13.10;27.60
9466;DHT22;4771;48.726;9.006;2024-03-25T14:16:49;13.20;27.10
9466;DHT22;4771;48.726;9.006;2024-03-25T14:19:16;13.10;27.10
9466;DHT22;4771;48.726;9.006;2024-03-25T14:21:42;13.00;27.40
9466;DHT22;4771;48.726;9.006;2024-03-25T14:24:08;13.10;28.70
9466;DHT22;4771;48.726;9.006;2024-03-25T14:26:34;13.10;27.70
9466;DHT22;4771;48.726;9.006;2024-03-25T14:29:00;13.00;28.00
9466;DHT22;4771;48.726;9.006;2024-03-25T14:31:26;13.00;27.40
9466;DHT22;4771;48.726;9.006;2024-03-25T14:33:52;12.90;26.80
9466;DHT22;4771;48.726;9.006;2024-03-25T14:36:20;12.80;26.50
9466;DHT22;4771;48.726;9.006;2024-03-25T14:38:46;12.70;26.30
9466;DHT22;4771;48.726;9.006;2024-03-25T14:41:12;12.70;27.00
9466;DHT22;4771;48.726;9.006;2024-03-25T14:43:38;12.60;26.70
9466;DHT22;4771;48.726;9.006;2024-03-25T14:46:04;12.90;27.00
9466;DHT22;4771;48.726;9.006;2024-03-25T14:48:30;12.70;28.00
9466;DHT22;4771;48.726;9.006;2024-03-25T14:50:56;12.50;28.00
9466;DHT22;4771;48.726;9.006;2024-03-25T14:53:23;12.40;27.90
9466;DHT22;4771;48.726;9.006;2024-03-25T14:55:49;12.50;27.80
9466;DHT22;4771;48.726;9.006;2024-03-25T14:58:15;12.40;28.20
9466;DHT22;4771;48.726;9.006;2024-03-25T15:00:41;12.40;28.20
9466;DHT22;4771;48.726;9.006;2024-03-25T15:03:06;12.30;28.30
9466;DHT22;4771;48.726;9.006;2024-03-25T15:05:32;12.30;27.10
9466;DHT22;4771;48.726;9.006;2024-03-25T15:07:58;12.30;26.90
9466;DHT22;4771;48.726;9.006;2024-03-25T15:10:26;12.30;27.60
9466;DHT22;4771;48.726;9.006;2024-03-25T15:12:52;12.30;28.30
9466;DHT22;4771;48.726;9.006;2024-03-25T15:15:18;12.30;27.10
9466;DHT22;4771;48.726;9.006;2024-03-25T15:17:44;12.30;27.90
9466;DHT22;4771;48.726;9.006;2024-03-25T15:20:11;12.20;27.30
9466;DHT22;4771;48.726;9.006;2024-03-25T15:22:37;12.10;26.90
9466;DHT22;4771;48.726;9.006;2024-03-25T15:25:03;12.10;27.30
9466;DHT22;4771;48.726;9.006;2024-03-25T15:27:31;12.10;27.70
9466;DHT22;4771;48.726;9.006;2024-03-25T15:29:57;12.20;28.30
9466;DHT22;4771;48.726;9.006;2024-03-25T15:32:23;12.20;28.60
9466;DHT22;4771;48.726;9.006;2024-03-25T15:34:49;12.10;28.60
9466;DHT22;4771;48.726;9.006;2024-03-25T15:37:15;12.40;28.10
9466;DHT22;4771;48.726;9.006;2024-03-25T15:39:41;12.30;27.40
9466;DHT22;4771;48.726;9.006;2024-03-25T15:42:07;12.10;27.90
9466;DHT22;4771;48.726;9.006;2024-03-25T15:44:34;12.10;27.50
9466;DHT22;4771;48.726;9.006;2024-03-25T15:47:00;12.10;27.70
9466;DHT22;4771;48.726;9.006;2024-03-25T15:49:26;12.10;27.60
9466;DHT22;4771;48.726;9.006;2024-03-25T15:51:52;12.00;27.70
9466;DHT22;4771;48.726;9.006;2024-03-25T15:54:18;12.00;27.00
9466;DHT22;4771;48.726;9.006;2024-03-25T15:56:44;11.90;26.20
9466;DHT22;4771;48.726;9.006;2024-03-25T15:59:09;11.80;26.50
9466;DHT22;4771;48.726;9.006;2024-03-25T16:01:37;11.80;27.00
9466;DHT22;4771;48.726;9.006;2024-03-25T16:04:03;11.90;25.50
9466;DHT22;4771;48.726;9.006;2024-03-25T16:06:29;11.70;26.30
9466;DHT22;4771;48.726;9.006;2024-03-25T16:08:55;11.70;26.20